Flight Track Log - Related Links

Times and Time Zones

All times are in EDT time to prevent confusion due to time zone crossing. See the SKW7430 flight status page for this flight to view local times or setup timezone preferences in your user account.

Time Position Orientation Groundspeed Altitude Reporting Facility
EDT Latitude Longitude Course Direction KTS MPH feet Rate Location/Type
Fri 07:08:18 PM 40.8014 -111.9642 29° Northeast 125 144 4,900  Level Salt Lake Center
Fri 07:08:54 PM 40.8303 -111.9683 354° North 164 189 5,600 1,113 Climbing Salt Lake Center
Fri 07:09:55 PM 40.8844 -111.9811 350° North 201 231 6,700 1,013 Climbing Salt Lake Center
Fri 07:10:11 PM 40.8950 -111.9828 353° North 203 234 6,900 935 Climbing Salt Lake Center
Fri 07:11:12 PM 40.9556 -111.9983 349° North 219 252 7,900 1,024 Climbing Salt Lake Center
Fri 07:12:00 PM 41.1023 -111.8457 17° North  Level FlightAware Approximate
Fri 07:12:14 PM 41.0211 -112.0133 350° North 235 270 9,000  Level Salt Lake Center
Fri 07:13:00 PM 41.1785 -111.7995 29° Northeast  Level FlightAware Approximate
Fri 07:13:15 PM 41.0875 -112.0306 349° North 239 275 10,300  Level Salt Lake Center
Fri 07:14:17 PM 41.1497 -112.0081 15° North 245 282 11,700 1,220 Climbing Salt Lake Center
Fri 07:15:18 PM 41.2086 -111.9944 10° North 237 273 12,800 1,171 Climbing Salt Lake Center
Fri 07:16:20 PM 41.2700 -112.0258 339° North 237 273 14,100 1,258 Climbing Salt Lake Center
Fri 07:17:22 PM 41.3489 -112.0539 345° North 245 282 15,400 1,171 Climbing Salt Lake Center
Fri 07:18:23 PM 41.4167 -112.0753 347° North 248 285 16,500 976 Climbing Salt Lake Center
Fri 07:19:25 PM 41.4844 -112.0983 346° North 251 289 17,400 829 Climbing Salt Lake Center
Fri 07:20:26 PM 41.5542 -112.1214 346° North 258 297 18,200 927 Climbing Salt Lake Center
Fri 07:21:28 PM 41.6242 -112.1447 346° North 259 298 19,300 976 Climbing Salt Lake Center
Fri 07:22:29 PM 41.6922 -112.1694 345° North 254 292 20,200 829 Climbing Salt Lake Center
Fri 07:23:31 PM 41.7594 -112.1925 346° North 249 287 21,000 726 Climbing Salt Lake Center
Fri 07:24:33 PM 41.8261 -112.2158 345° North 245 282 21,700 439 Climbing Salt Lake Center
Fri 07:25:34 PM 41.9106 -112.2439 346° North 258 297 21,900 -585 Climbing Salt Lake Center
Fri 07:26:36 PM 41.9903 -112.2733 345° North 292 336 20,500 -1,452 Descending Salt Lake Center
Fri 07:27:38 PM 42.0750 -112.3014 346° North 312 359 18,900 -1,463 Descending Salt Lake Center
Fri 07:28:39 PM 42.1586 -112.3311 345° North 311 358 17,500 -1,415 Descending Salt Lake Center
Fri 07:29:41 PM 42.2411 -112.3581 346° North 308 354 16,000 -1,452 Descending Salt Lake Center
Fri 07:30:43 PM 42.3219 -112.3836 347° North 300 345 14,500 -1,452 Descending Salt Lake Center
Fri 07:31:45 PM 42.3994 -112.4119 345° North 293 337 13,000 -1,220 Descending Salt Lake Center
Fri 07:32:46 PM 42.4750 -112.4403 345° North 285 328 12,000 -878 Descending Salt Lake Center
Fri 07:33:48 PM 42.5661 -112.4753 344° North 283 326 11,200 -871 Descending Salt Lake Center
Fri 07:34:50 PM 42.6372 -112.5039 344° North 280 322 10,200 -1,065 Descending Salt Lake Center
Fri 07:35:52 PM 42.7181 -112.5456 339° North 278 320 9,000 -1,161 Descending Salt Lake Center

Login

Don't have an account? Register now (free) for customized features, flight alerts, and more!